Time;durP1;ratioP1;P1;durP2;ratioP2;P2;SDS_P1;SDS_P2;PMS_P1;PMS_P2;Temp;Humidity;BMP_temperature;BMP_pressure;BME280_temperature;BME280_humidity;BME280_pressure;Samples;Min_cycle;Max_cycle;Signal;HPM_P1;HPM_P2
2022/10/18 00:01:36;;;;;;;29.85;13.20;;;23.30;70.40;;;;;;5015041;28;20514;-73
2022/10/18 00:04:01;;;;;;;41.78;15.90;;;23.30;70.50;;;;;;4986575;28;20105;-73
2022/10/18 00:06:27;;;;;;;37.35;14.45;;;23.40;70.40;;;;;;5028566;28;20526;-73
2022/10/18 00:08:53;;;;;;;42.85;14.70;;;23.30;70.30;;;;;;5009787;28;20431;-73
2022/10/18 00:11:19;;;;;;;35.15;15.35;;;23.30;70.30;;;;;;5000862;28;20113;-73
2022/10/18 00:13:45;;;;;;;38.70;14.68;;;23.30;70.30;;;;;;5001247;28;20164;-73
2022/10/18 00:16:14;;;;;;;42.83;15.68;;;23.40;70.40;;;;;;4998766;28;20495;-73
2022/10/18 00:18:41;;;;;;;47.80;15.82;;;23.30;70.40;;;;;;4957840;28;20040;-73
2022/10/18 00:21:20;;;;;;;44.22;15.40;;;23.30;70.50;;;;;;4984518;28;20039;-72
2022/10/18 00:23:46;;;;;;;45.33;14.18;;;23.30;70.40;;;;;;4997968;28;20022;-72
2022/10/18 00:26:18;;;;;;;42.15;14.50;;;23.30;70.60;;;;;;4981622;28;20034;-72
2022/10/18 00:28:45;;;;;;;41.17;15.40;;;23.40;70.60;;;;;;5001869;28;20041;-72
2022/10/18 00:31:20;;;;;;;33.67;13.68;;;23.30;70.60;;;;;;5008663;28;20026;-72
2022/10/18 00:33:51;;;;;;;40.47;14.70;;;23.30;70.60;;;;;;4993552;28;20028;-73
2022/10/18 00:36:17;;;;;;;34.70;13.85;;;23.30;70.70;;;;;;5002981;28;20027;-73
2022/10/18 00:38:44;;;;;;;35.88;13.88;;;23.30;70.60;;;;;;4991458;28;20542;-72
2022/10/18 00:41:13;;;;;;;35.90;14.30;;;23.30;70.50;;;;;;4965355;28;20041;-72
2022/10/18 00:43:57;;;;;;;40.58;14.40;;;23.30;70.60;;;;;;5004760;28;20056;-73
2022/10/18 00:46:24;;;;;;;38.20;14.00;;;23.30;70.80;;;;;;4993947;28;20029;-73
2022/10/18 00:48:51;;;;;;;42.15;14.80;;;23.30;70.70;;;;;;4990521;28;20026;-73
2022/10/18 00:51:19;;;;;;;31.88;14.88;;;23.30;70.60;;;;;;5000615;28;20033;-72
2022/10/18 00:53:46;;;;;;;34.35;14.38;;;23.40;70.70;;;;;;4990865;28;20033;-73
2022/10/18 00:56:12;;;;;;;39.58;14.48;;;23.40;70.80;;;;;;5001534;28;20396;-73
2022/10/18 00:58:38;;;;;;;34.13;14.40;;;23.30;70.90;;;;;;5000625;28;20093;-73
2022/10/18 01:01:04;;;;;;;34.25;14.40;;;23.40;70.90;;;;;;4992625;28;20036;-72
2022/10/18 01:03:31;;;;;;;39.03;13.98;;;23.40;71.00;;;;;;5005526;28;20029;-73
2022/10/18 01:05:56;;;;;;;35.45;13.93;;;23.40;71.00;;;;;;5015200;28;20322;-73
2022/10/18 01:08:25;;;;;;;30.60;14.25;;;23.40;71.20;;;;;;5000091;28;20033;-73
2022/10/18 01:10:57;;;;;;;32.88;13.93;;;23.40;71.10;;;;;;5001818;28;20531;-72
2022/10/18 01:13:48;;;;;;;30.08;13.00;;;23.40;71.00;;;;;;4999586;28;20026;-72
2022/10/18 01:16:31;;;;;;;35.50;13.05;;;23.40;71.10;;;;;;5006921;28;20038;-73
2022/10/18 01:19:49;;;;;;;37.67;13.93;;;23.40;71.20;;;;;;5006784;28;20030;-73
2022/10/18 01:22:27;;;;;;;33.55;13.65;;;23.40;71.20;;;;;;4962049;28;20500;-72
2022/10/18 01:25:15;;;;;;;28.15;12.68;;;23.40;71.40;;;;;;5006426;28;20109;-72
2022/10/18 01:28:19;;;;;;;32.13;12.88;;;23.40;71.40;;;;;;4993682;28;20030;-73
2022/10/18 01:31:00;;;;;;;32.38;12.70;;;23.40;71.60;;;;;;4994112;28;20027;-73
2022/10/18 01:33:38;;;;;;;34.83;12.80;;;23.40;71.60;;;;;;4995295;28;20019;-73
2022/10/18 01:36:34;;;;;;;32.25;12.85;;;23.40;71.70;;;;;;5008213;28;20032;-73
2022/10/18 01:39:05;;;;;;;40.63;13.20;;;23.40;71.70;;;;;;5007085;28;20365;-72
2022/10/18 01:41:32;;;;;;;30.52;13.10;;;23.40;71.90;;;;;;5002794;28;20033;-72
2022/10/18 01:44:01;;;;;;;30.23;12.07;;;23.40;71.80;;;;;;4984679;28;20280;-73
2022/10/18 01:46:28;;;;;;;34.80;13.18;;;23.40;71.80;;;;;;4994658;28;20093;-72
2022/10/18 01:48:55;;;;;;;29.33;12.35;;;23.40;72.00;;;;;;4995297;28;20019;-73
2022/10/18 01:51:25;;;;;;;32.80;12.68;;;23.40;71.70;;;;;;5001798;28;20065;-73
2022/10/18 01:53:52;;;;;;;26.00;11.98;;;23.40;71.80;;;;;;4976334;28;20142;-73
2022/10/18 01:56:46;;;;;;;33.22;12.65;;;23.40;71.80;;;;;;4969151;28;20034;-73
2022/10/18 01:59:34;;;;;;;30.02;11.63;;;23.40;71.70;;;;;;5003769;28;20026;-73
2022/10/18 02:02:15;;;;;;;26.70;12.25;;;23.40;71.60;;;;;;5005231;28;20025;-72
2022/10/18 02:05:01;;;;;;;25.10;11.82;;;23.40;71.80;;;;;;5003818;28;20085;-73
2022/10/18 02:07:38;;;;;;;25.45;11.38;;;23.40;71.50;;;;;;5004788;28;20062;-73
2022/10/18 02:10:16;;;;;;;30.95;11.75;;;23.40;71.70;;;;;;5002036;28;20037;-73
2022/10/18 02:12:45;;;;;;;28.20;11.95;;;23.40;71.70;;;;;;4998451;28;20511;-73
2022/10/18 02:15:15;;;;;;;29.23;12.48;;;23.40;71.50;;;;;;5000250;28;20031;-73
2022/10/18 02:17:43;;;;;;;;;;;23.40;71.80;;;;;;5010233;28;20072;-72
2022/10/18 02:20:10;;;;;;;28.70;11.63;;;23.40;71.70;;;;;;4999715;28;20011;-72
2022/10/18 02:22:38;;;;;;;26.15;11.15;;;23.40;71.70;;;;;;5011690;28;20238;-72
2022/10/18 02:25:09;;;;;;;26.88;11.23;;;23.40;71.80;;;;;;5001052;28;21416;-73
2022/10/18 02:27:36;;;;;;;27.15;11.60;;;23.40;71.90;;;;;;5010356;28;20038;-72
2022/10/18 02:30:04;;;;;;;27.33;11.10;;;23.40;71.90;;;;;;5003189;28;20107;-73
2022/10/18 02:33:00;;;;;;;23.88;10.95;;;23.40;71.70;;;;;;5005679;28;20095;-72
2022/10/18 02:35:36;;;;;;;24.02;10.60;;;23.40;72.20;;;;;;4995752;28;20027;-72
2022/10/18 02:38:04;;;;;;;29.05;11.43;;;23.40;72.00;;;;;;5012583;28;20037;-72
2022/10/18 02:40:30;;;;;;;28.73;11.68;;;23.40;71.90;;;;;;5007912;28;20041;-74
2022/10/18 02:42:57;;;;;;;30.83;11.05;;;23.40;71.70;;;;;;4997591;28;20018;-72
2022/10/18 02:45:24;;;;;;;33.45;11.70;;;23.40;71.80;;;;;;5000676;28;20399;-73
2022/10/18 02:47:50;;;;;;;35.40;11.85;;;23.40;71.90;;;;;;5002349;28;20506;-72
2022/10/18 02:50:16;;;;;;;28.67;10.68;;;23.40;71.80;;;;;;5005801;28;20041;-72
2022/10/18 02:52:42;;;;;;;29.40;10.63;;;23.40;71.60;;;;;;5001347;28;20085;-73
2022/10/18 02:55:09;;;;;;;24.25;11.45;;;23.40;71.40;;;;;;4982170;28;20019;-73
2022/10/18 02:57:35;;;;;;;23.50;11.13;;;23.50;71.40;;;;;;5009841;28;20092;-72
2022/10/18 03:00:01;;;;;;;26.00;11.15;;;23.40;71.30;;;;;;4996273;28;20022;-73
2022/10/18 03:02:27;;;;;;;31.35;11.00;;;23.50;71.40;;;;;;4997732;28;20030;-73
2022/10/18 03:04:53;;;;;;;25.58;11.13;;;23.50;71.70;;;;;;5008946;28;20041;-72
2022/10/18 03:07:19;;;;;;;21.05;10.35;;;23.40;71.30;;;;;;5001262;28;20097;-73
2022/10/18 03:09:44;;;;;;;21.42;10.45;;;23.50;72.00;;;;;;5000514;28;20038;-73
2022/10/18 03:12:10;;;;;;;22.60;10.45;;;23.40;71.50;;;;;;5007136;28;20037;-73
2022/10/18 03:14:36;;;;;;;24.80;10.80;;;23.40;71.50;;;;;;5005741;28;20077;-73
2022/10/18 03:17:02;;;;;;;24.90;10.25;;;23.40;71.60;;;;;;4993807;28;20088;-73
2022/10/18 03:19:27;;;;;;;24.95;10.50;;;23.40;71.40;;;;;;5002183;28;20026;-73
2022/10/18 03:21:53;;;;;;;26.70;10.40;;;23.40;71.60;;;;;;5004203;28;20052;-73
2022/10/18 03:24:19;;;;;;;21.30;9.50;;;23.40;71.50;;;;;;5007469;28;20456;-73
2022/10/18 03:26:45;;;;;;;23.63;10.43;;;23.40;71.50;;;;;;4999055;28;20465;-72
2022/10/18 03:29:11;;;;;;;24.27;9.82;;;23.40;71.50;;;;;;5005843;28;20026;-72
2022/10/18 03:31:37;;;;;;;25.88;10.32;;;23.40;71.50;;;;;;5005538;28;20033;-72
2022/10/18 03:34:02;;;;;;;22.02;10.15;;;23.40;71.40;;;;;;5002213;28;20022;-73
2022/10/18 03:36:28;;;;;;;20.55;10.13;;;23.40;71.70;;;;;;5002460;28;20136;-73
2022/10/18 03:38:54;;;;;;;20.20;9.50;;;23.40;71.60;;;;;;4974330;28;20083;-73
2022/10/18 03:41:20;;;;;;;24.67;10.40;;;23.40;71.90;;;;;;5003536;28;20034;-73
2022/10/18 03:43:46;;;;;;;20.98;9.18;;;23.40;71.60;;;;;;4991598;28;20038;-73
2022/10/18 03:46:12;;;;;;;21.60;9.63;;;23.40;71.80;;;;;;5005399;28;20029;-74
2022/10/18 03:48:38;;;;;;;20.23;9.45;;;23.40;71.60;;;;;;5004238;28;20029;-74
2022/10/18 03:51:04;;;;;;;20.48;9.57;;;23.50;71.70;;;;;;5003989;28;20030;-73
2022/10/18 03:53:29;;;;;;;25.35;10.32;;;23.40;71.80;;;;;;5004197;28;20030;-73
2022/10/18 03:55:55;;;;;;;19.73;8.95;;;23.50;71.50;;;;;;5004576;28;20177;-73
2022/10/18 03:58:22;;;;;;;19.20;9.70;;;23.50;71.70;;;;;;5004027;28;20116;-72
2022/10/18 04:00:50;;;;;;;21.90;9.05;;;23.50;71.60;;;;;;5002321;28;20025;-73
2022/10/18 04:03:16;;;;;;;18.83;9.30;;;23.50;71.60;;;;;;4988125;28;20022;-73
2022/10/18 04:05:42;;;;;;;20.48;9.93;;;23.50;72.00;;;;;;4999018;28;20022;-73
2022/10/18 04:08:08;;;;;;;21.35;9.77;;;23.50;71.80;;;;;;5007378;28;20163;-73
2022/10/18 04:10:37;;;;;;;21.35;9.77;;;23.50;71.80;;;;;;5010233;28;20029;-73
2022/10/18 04:13:03;;;;;;;16.92;8.55;;;23.40;71.80;;;;;;4998889;28;20166;-73
2022/10/18 04:15:29;;;;;;;22.02;9.45;;;23.50;72.10;;;;;;4990003;28;20030;-73
2022/10/18 04:17:55;;;;;;;21.65;9.43;;;23.50;71.80;;;;;;4982112;28;20506;-73
2022/10/18 04:20:22;;;;;;;21.35;9.02;;;23.40;71.80;;;;;;4998602;28;20060;-73
2022/10/18 04:22:49;;;;;;;22.58;9.52;;;23.40;72.30;;;;;;4983303;28;20542;-73
2022/10/18 04:25:15;;;;;;;18.45;8.73;;;23.40;72.40;;;;;;5002539;28;20107;-73
2022/10/18 04:27:41;;;;;;;21.65;9.02;;;23.40;72.40;;;;;;5002263;28;20017;-73
2022/10/18 04:30:07;;;;;;;22.75;9.88;;;23.40;72.10;;;;;;5001331;28;20113;-73
2022/10/18 04:32:34;;;;;;;21.48;9.35;;;23.40;72.50;;;;;;4990895;28;20026;-74
2022/10/18 04:35:04;;;;;;;23.80;9.40;;;23.40;72.40;;;;;;4991731;28;20027;-73
2022/10/18 04:37:30;;;;;;;22.85;9.30;;;23.40;72.80;;;;;;4995459;28;20041;-73
2022/10/18 04:39:56;;;;;;;20.27;9.05;;;23.40;72.50;;;;;;4973334;28;20030;-72
2022/10/18 04:42:22;;;;;;;17.40;8.45;;;23.40;72.60;;;;;;4981831;28;20034;-72
2022/10/18 04:44:48;;;;;;;18.00;8.77;;;23.40;72.70;;;;;;4991178;28;20053;-72
2022/10/18 04:47:14;;;;;;;21.20;9.77;;;23.40;72.50;;;;;;4971332;28;20026;-72
2022/10/18 04:49:40;;;;;;;17.20;8.43;;;23.40;72.30;;;;;;4997837;28;20028;-73
2022/10/18 04:52:06;;;;;;;18.33;8.88;;;23.40;72.50;;;;;;4977800;28;20029;-73
2022/10/18 04:54:32;;;;;;;18.10;8.68;;;23.40;72.00;;;;;;4991006;28;20061;-72
2022/10/18 04:56:58;;;;;;;18.48;8.48;;;23.40;72.20;;;;;;4994035;28;20134;-72
2022/10/18 04:59:23;;;;;;;18.98;8.32;;;23.40;72.60;;;;;;5007891;28;20510;-72
2022/10/18 05:01:49;;;;;;;17.33;8.45;;;23.40;72.40;;;;;;4988873;28;20473;-72
2022/10/18 05:04:15;;;;;;;19.23;8.73;;;23.50;72.70;;;;;;4980615;28;20041;-73
2022/10/18 05:06:41;;;;;;;18.30;8.73;;;23.50;72.40;;;;;;4984908;28;20119;-72
2022/10/18 05:09:06;;;;;;;18.15;8.68;;;23.50;72.30;;;;;;5006365;28;20451;-73
2022/10/18 05:11:32;;;;;;;21.30;8.43;;;23.50;72.00;;;;;;5006568;28;20037;-72
2022/10/18 05:13:58;;;;;;;19.92;8.48;;;23.40;72.20;;;;;;4998405;28;20023;-72
2022/10/18 05:16:24;;;;;;;19.20;8.40;;;23.50;73.00;;;;;;4981580;28;20085;-72
2022/10/18 05:18:50;;;;;;;15.85;8.00;;;23.40;72.50;;;;;;4988683;28;20045;-72
2022/10/18 05:21:16;;;;;;;16.45;8.05;;;23.50;72.40;;;;;;4999477;28;20398;-72
2022/10/18 05:23:42;;;;;;;17.63;7.60;;;23.40;72.10;;;;;;4973718;28;20026;-72
2022/10/18 05:26:07;;;;;;;16.00;7.65;;;23.40;72.10;;;;;;4995991;28;20021;-73
2022/10/18 05:28:34;;;;;;;14.73;7.80;;;23.40;72.30;;;;;;4990711;28;20030;-72
2022/10/18 05:31:01;;;;;;;18.90;7.90;;;23.40;72.30;;;;;;4984520;28;20026;-72
2022/10/18 05:33:27;;;;;;;19.08;8.50;;;23.40;72.40;;;;;;4982072;28;20038;-72
2022/10/18 05:35:53;;;;;;;17.05;7.90;;;23.40;72.00;;;;;;5002093;28;20033;-73
2022/10/18 05:38:19;;;;;;;17.30;7.93;;;23.40;71.90;;;;;;4996586;28;20469;-72
2022/10/18 05:40:45;;;;;;;29.75;8.05;;;23.40;72.20;;;;;;4989784;28;20519;-72
2022/10/18 05:43:11;;;;;;;17.45;8.15;;;23.40;72.60;;;;;;4979720;28;20026;-72
2022/10/18 05:45:37;;;;;;;17.40;8.32;;;23.40;71.90;;;;;;4984540;28;20029;-72
2022/10/18 05:48:04;;;;;;;16.35;7.22;;;23.40;72.20;;;;;;5007626;28;20391;-72
2022/10/18 05:50:30;;;;;;;17.88;7.68;;;23.40;72.30;;;;;;5003477;28;20334;-72
2022/10/18 05:52:56;;;;;;;13.75;7.20;;;23.40;72.40;;;;;;4980753;28;20400;-72
2022/10/18 05:55:22;;;;;;;13.38;7.13;;;23.40;71.90;;;;;;5004186;28;20488;-73
2022/10/18 05:57:49;;;;;;;21.80;8.15;;;23.40;71.90;;;;;;5003499;28;20034;-73
2022/10/18 06:00:19;;;;;;;22.77;8.30;;;23.50;72.20;;;;;;4995972;28;20084;-73
2022/10/18 06:02:44;;;;;;;16.95;7.63;;;23.40;72.80;;;;;;5002880;28;20034;-73
2022/10/18 06:05:10;;;;;;;19.75;7.97;;;23.40;73.00;;;;;;5019086;23;20115;-70
2022/10/18 06:07:36;;;;;;;21.40;7.50;;;23.40;72.70;;;;;;5014832;28;20033;-70
2022/10/18 06:10:02;;;;;;;26.65;8.05;;;23.50;72.50;;;;;;5009614;28;20024;-71
2022/10/18 06:12:27;;;;;;;22.85;8.68;;;23.50;72.90;;;;;;5024475;28;20025;-71
2022/10/18 06:14:53;;;;;;;18.83;8.02;;;23.50;73.00;;;;;;5031554;28;20021;-71
2022/10/18 06:17:19;;;;;;;18.60;8.13;;;23.50;72.70;;;;;;5016611;28;20026;-71
2022/10/18 06:19:45;;;;;;;30.30;7.38;;;23.50;72.70;;;;;;5001020;28;20034;-72
2022/10/18 06:22:11;;;;;;;20.20;7.30;;;23.40;72.80;;;;;;5023399;28;20561;-71
2022/10/18 06:24:37;;;;;;;20.55;7.93;;;23.50;72.70;;;;;;5000936;28;20096;-71
2022/10/18 06:27:07;;;;;;;19.00;7.15;;;23.50;72.80;;;;;;5003509;28;20042;-71
2022/10/18 06:29:34;;;;;;;18.52;7.80;;;23.50;73.10;;;;;;4999131;28;20030;-71
2022/10/18 06:32:00;;;;;;;21.13;7.25;;;23.40;72.60;;;;;;5028626;28;20017;-72
2022/10/18 06:34:26;;;;;;;17.95;7.22;;;23.40;72.50;;;;;;5042668;28;20076;-70
2022/10/18 06:36:51;;;;;;;20.52;8.23;;;23.50;72.70;;;;;;5003987;28;20021;-70
2022/10/18 06:39:17;;;;;;;18.52;7.60;;;23.40;72.60;;;;;;5004916;28;20670;-70
2022/10/18 06:41:43;;;;;;;17.38;6.68;;;23.40;72.10;;;;;;5005168;28;20108;-70
2022/10/18 06:44:30;;;;;;;15.52;7.05;;;23.40;72.70;;;;;;4997191;28;20110;-70
2022/10/18 06:46:56;;;;;;;21.08;7.22;;;23.50;72.90;;;;;;5009749;28;20548;-70
2022/10/18 06:49:22;;;;;;;15.20;7.28;;;23.50;72.80;;;;;;5020319;28;20072;-70
2022/10/18 06:51:47;;;;;;;19.27;7.55;;;23.50;72.80;;;;;;5005342;28;20036;-70
2022/10/18 06:54:14;;;;;;;16.40;7.03;;;23.50;73.40;;;;;;5018347;28;20034;-70
2022/10/18 06:56:40;;;;;;;23.67;7.85;;;23.50;73.00;;;;;;5004385;28;20026;-70
2022/10/18 06:59:05;;;;;;;24.90;7.35;;;23.50;73.00;;;;;;5013290;28;20041;-70
2022/10/18 07:01:31;;;;;;;20.67;7.43;;;23.50;72.70;;;;;;5029608;28;20032;-71
2022/10/18 07:03:57;;;;;;;17.13;7.13;;;23.50;73.10;;;;;;5032879;28;20022;-71
2022/10/18 07:06:24;;;;;;;16.67;7.18;;;23.50;73.10;;;;;;5005821;28;20045;-71
2022/10/18 07:08:51;;;;;;;17.23;6.90;;;23.50;73.00;;;;;;5002504;28;20391;-73
2022/10/18 07:11:23;;;;;;;16.15;6.95;;;23.50;72.80;;;;;;5022680;28;20041;-73
2022/10/18 07:13:50;;;;;;;13.32;6.57;;;23.40;72.30;;;;;;5001757;28;20044;-72
2022/10/18 07:16:18;;;;;;;14.43;6.50;;;23.40;71.90;;;;;;5027832;28;20033;-74
2022/10/18 07:18:48;;;;;;;15.98;5.75;;;23.40;71.00;;;;;;5013627;28;20032;-75
2022/10/18 07:21:15;;;;;;;11.48;5.47;;;23.30;70.90;;;;;;5024755;28;20036;-75
2022/10/18 07:23:44;;;;;;;17.13;6.53;;;23.30;71.00;;;;;;5023962;28;20093;-75
2022/10/18 07:26:23;;;;;;;15.43;10.20;;;23.30;71.60;;;;;;4977558;28;20635;-75
2022/10/18 07:28:53;;;;;;;31.75;21.55;;;23.30;70.90;;;;;;5003209;28;20368;-74
2022/10/18 07:31:19;;;;;;;38.00;30.73;;;23.30;71.10;;;;;;5003391;28;20035;-74
2022/10/18 07:33:45;;;;;;;45.15;29.90;;;23.30;71.90;;;;;;5014273;28;20030;-75
2022/10/18 07:36:12;;;;;;;44.70;19.33;;;23.30;72.30;;;;;;4992747;28;20030;-75
2022/10/18 07:38:38;;;;;;;25.15;15.60;;;23.30;70.00;;;;;;4998126;28;20033;-78
2022/10/18 07:41:06;;;;;;;22.70;14.10;;;23.30;71.60;;;;;;4997481;28;20438;-71
2022/10/18 07:43:33;;;;;;;19.48;10.88;;;23.30;72.00;;;;;;5009451;28;20479;-73
2022/10/18 07:46:01;;;;;;;28.13;9.52;;;23.30;71.40;;;;;;5018153;28;20377;-73
2022/10/18 07:48:28;;;;;;;15.93;8.70;;;23.30;71.20;;;;;;5012469;28;20044;-73
2022/10/18 07:50:56;;;;;;;20.05;7.60;;;23.30;71.00;;;;;;5003879;28;20021;-71
2022/10/18 07:53:22;;;;;;;18.60;6.22;;;23.30;70.30;;;;;;5021992;28;20034;-70
2022/10/18 07:55:47;;;;;;;13.13;5.53;;;23.30;69.40;;;;;;5013355;28;20036;-71
2022/10/18 07:58:13;;;;;;;16.27;6.10;;;23.30;69.80;;;;;;5021108;28;20036;-70
2022/10/18 08:00:39;;;;;;;16.48;5.60;;;23.40;68.90;;;;;;5013401;28;21163;-71
2022/10/18 08:03:05;;;;;;;17.92;5.30;;;23.40;69.40;;;;;;5022729;28;20026;-71
2022/10/18 08:05:31;;;;;;;14.07;5.25;;;23.40;69.20;;;;;;5008511;28;20040;-71
2022/10/18 08:07:57;;;;;;;10.35;4.93;;;23.50;69.20;;;;;;4995735;28;20040;-71
2022/10/18 08:10:23;;;;;;;12.98;4.53;;;23.50;69.30;;;;;;5029513;28;20034;-71
2022/10/18 08:12:50;;;;;;;15.80;5.00;;;23.50;69.40;;;;;;5011064;28;20076;-71
2022/10/18 08:15:17;;;;;;;13.07;5.05;;;23.50;69.40;;;;;;4981568;28;20053;-70
2022/10/18 08:17:43;;;;;;;12.57;4.28;;;23.50;69.50;;;;;;5009981;28;20488;-70
2022/10/18 08:20:09;;;;;;;9.30;4.32;;;23.50;69.50;;;;;;5012354;28;20033;-71
2022/10/18 08:22:35;;;;;;;11.05;4.35;;;23.50;69.60;;;;;;4994564;28;20087;-71
2022/10/18 08:25:02;;;;;;;7.78;4.00;;;23.40;69.70;;;;;;5028582;28;20026;-70
2022/10/18 08:27:28;;;;;;;9.43;4.25;;;23.50;69.80;;;;;;4994902;28;20121;-70
2022/10/18 08:29:54;;;;;;;10.55;4.68;;;23.50;69.80;;;;;;5011403;28;20484;-70
2022/10/18 08:32:20;;;;;;;10.30;4.65;;;23.50;70.00;;;;;;5009832;28;20033;-71
2022/10/18 08:34:46;;;;;;;12.85;4.30;;;23.50;70.00;;;;;;5010873;28;20082;-70
2022/10/18 08:37:11;;;;;;;8.25;4.57;;;23.50;70.00;;;;;;5011608;28;20079;-71
2022/10/18 08:39:37;;;;;;;10.85;4.57;;;23.50;70.00;;;;;;5009555;28;20061;-71
2022/10/18 08:42:35;;;;;;;8.60;4.22;;;23.50;70.10;;;;;;5022931;28;20045;-71
2022/10/18 08:45:04;;;;;;;9.80;4.40;;;23.50;70.10;;;;;;5026678;28;20502;-71
2022/10/18 08:47:37;;;;;;;9.35;4.03;;;23.50;70.00;;;;;;5017126;28;20061;-71
2022/10/18 08:50:13;;;;;;;9.55;4.55;;;23.50;70.00;;;;;;5000229;28;20490;-71
2022/10/18 08:52:54;;;;;;;8.68;4.25;;;23.50;70.00;;;;;;4987784;28;20033;-71
2022/10/18 08:55:35;;;;;;;9.55;4.47;;;23.50;69.90;;;;;;5005904;28;20045;-71
2022/10/18 08:58:25;;;;;;;9.90;4.65;;;23.50;69.90;;;;;;4998644;28;20041;-71
2022/10/18 09:01:25;;;;;;;11.13;4.55;;;23.50;70.00;;;;;;5007677;28;20040;-71
2022/10/18 09:03:59;;;;;;;7.43;4.15;;;23.50;70.10;;;;;;5007750;28;20498;-71
2022/10/18 09:06:55;;;;;;;11.57;4.18;;;23.50;70.20;;;;;;5026156;28;20029;-71
2022/10/18 09:09:41;;;;;;;8.40;4.15;;;23.50;70.30;;;;;;5015573;28;20057;-72
2022/10/18 09:12:07;;;;;;;10.10;3.97;;;23.50;70.30;;;;;;5008739;28;20033;-71
2022/10/18 09:14:50;;;;;;;7.38;3.78;;;23.50;70.40;;;;;;5008716;28;20033;-71
2022/10/18 09:17:21;;;;;;;10.80;4.13;;;23.50;70.40;;;;;;4990691;28;20516;-71
2022/10/18 09:20:12;;;;;;;8.23;3.97;;;23.50;70.50;;;;;;5012651;28;20116;-71
2022/10/18 09:22:51;;;;;;;8.30;3.85;;;23.50;70.50;;;;;;5016503;28;20056;-71
2022/10/18 09:25:25;;;;;;;13.15;3.95;;;23.50;70.50;;;;;;5028436;28;20538;-71
2022/10/18 09:28:03;;;;;;;11.07;4.13;;;23.50;70.50;;;;;;5008502;28;20061;-71
2022/10/18 09:30:53;;;;;;;9.05;3.85;;;23.50;70.40;;;;;;4996292;28;20029;-70
2022/10/18 09:33:33;;;;;;;8.48;4.15;;;23.50;70.40;;;;;;4992286;28;20310;-71
2022/10/18 09:36:08;;;;;;;11.85;4.75;;;23.50;70.50;;;;;;4979077;28;20049;-71
2022/10/18 09:38:44;;;;;;;9.40;4.35;;;23.50;70.40;;;;;;5011032;28;20476;-71
2022/10/18 09:41:23;;;;;;;11.25;4.90;;;23.50;70.40;;;;;;4995013;28;20041;-71
2022/10/18 09:44:09;;;;;;;9.88;4.22;;;23.50;70.50;;;;;;5011419;28;20068;-71
2022/10/18 09:46:42;;;;;;;9.73;4.47;;;23.50;70.50;;;;;;4978616;28;20062;-71
2022/10/18 09:49:30;;;;;;;11.38;4.60;;;23.50;70.50;;;;;;4995219;28;20030;-71
2022/10/18 09:51:58;;;;;;;11.50;4.47;;;23.50;70.50;;;;;;5010339;28;20441;-71
2022/10/18 09:54:42;;;;;;;11.70;4.32;;;23.50;70.50;;;;;;5012261;28;20058;-71
2022/10/18 09:57:08;;;;;;;11.35;4.70;;;23.50;70.60;;;;;;5012346;28;20123;-70
2022/10/18 09:59:39;;;;;;;9.10;4.13;;;23.50;70.50;;;;;;5014481;28;20483;-70
2022/10/18 10:02:05;;;;;;;9.60;4.15;;;23.50;70.60;;;;;;5013978;28;20037;-70
2022/10/18 10:04:31;;;;;;;11.52;4.40;;;23.50;70.70;;;;;;4997703;28;20030;-70
2022/10/18 10:07:00;;;;;;;15.68;4.22;;;23.50;70.60;;;;;;5034946;28;20032;-71
2022/10/18 10:09:36;;;;;;;10.18;4.20;;;23.50;70.60;;;;;;4992318;28;20041;-70
2022/10/18 10:12:01;;;;;;;11.38;5.05;;;23.50;70.60;;;;;;5036542;28;20364;-70
2022/10/18 10:14:29;;;;;;;12.18;4.90;;;23.50;70.50;;;;;;5029801;28;20044;-70
2022/10/18 10:17:04;;;;;;;15.82;5.53;;;23.50;70.50;;;;;;5033654;28;20047;-70
2022/10/18 10:19:31;;;;;;;9.73;5.43;;;23.50;70.50;;;;;;5051100;28;20029;-70
2022/10/18 10:22:08;;;;;;;13.00;5.50;;;23.50;70.90;;;;;;5051492;28;20370;-70
2022/10/18 10:24:50;;;;;;;13.35;5.25;;;23.50;70.30;;;;;;5051474;28;20025;-71
2022/10/18 10:27:23;;;;;;;9.80;4.90;;;23.50;70.40;;;;;;5051118;28;20025;-71
2022/10/18 10:29:54;;;;;;;11.13;4.75;;;23.50;70.40;;;;;;5051595;28;20422;-71
2022/10/18 10:32:23;;;;;;;13.38;5.10;;;23.50;70.40;;;;;;5032973;28;20510;-71
2022/10/18 10:34:49;;;;;;;12.20;4.90;;;23.50;70.40;;;;;;5033106;28;20413;-69
2022/10/18 10:37:26;;;;;;;11.25;5.00;;;23.50;70.40;;;;;;5050958;28;20032;-71
2022/10/18 10:40:09;;;;;;;13.73;5.03;;;23.50;70.40;;;;;;5033462;28;20041;-71
2022/10/18 10:42:37;;;;;;;10.48;5.00;;;23.50;70.30;;;;;;5050936;28;20466;-70
2022/10/18 10:45:04;;;;;;;10.30;4.97;;;23.50;70.30;;;;;;5051288;28;20044;-71
2022/10/18 10:47:35;;;;;;;7.72;4.97;;;23.50;70.30;;;;;;5016604;28;20039;-71
2022/10/18 10:50:10;;;;;;;9.57;4.68;;;23.50;70.30;;;;;;5050812;28;20109;-70
2022/10/18 10:52:38;;;;;;;8.23;4.68;;;23.50;70.30;;;;;;5050473;28;20025;-71
2022/10/18 10:55:14;;;;;;;11.18;4.80;;;23.50;70.30;;;;;;5016491;28;20033;-71
2022/10/18 10:57:44;;;;;;;9.10;4.60;;;23.50;70.30;;;;;;5050550;28;20462;-70
2022/10/18 11:00:30;;;;;;;;;;;23.50;70.30;;;;;;5051358;28;20119;-70
2022/10/18 11:03:06;;;;;;;8.77;4.38;;;23.50;70.30;;;;;;5050381;28;19913;-71
2022/10/18 11:05:45;;;;;;;8.88;4.40;;;23.50;70.30;;;;;;5050825;28;20032;-71
2022/10/18 11:08:14;;;;;;;8.30;4.47;;;23.50;70.30;;;;;;5032698;28;20082;-71
2022/10/18 11:10:53;;;;;;;8.40;4.50;;;23.50;70.30;;;;;;5032800;28;20040;-71
2022/10/18 11:13:45;;;;;;;9.43;4.93;;;23.50;70.40;;;;;;5032171;28;20045;-71
2022/10/18 11:16:31;;;;;;;8.55;4.40;;;23.50;70.40;;;;;;5032643;28;20101;-71
2022/10/18 11:19:00;;;;;;;8.70;4.35;;;23.50;70.50;;;;;;5049933;28;20032;-71
2022/10/18 11:21:28;;;;;;;9.73;4.40;;;23.50;70.50;;;;;;5050511;28;20039;-71
2022/10/18 11:23:56;;;;;;;8.30;4.65;;;23.50;70.40;;;;;;5031900;28;20033;-71
2022/10/18 11:26:50;;;;;;;8.38;4.30;;;23.40;70.40;;;;;;5016216;28;20029;-71
2022/10/18 11:29:37;;;;;;;6.85;4.32;;;23.50;70.50;;;;;;5034932;28;20374;-71
2022/10/18 11:32:41;;;;;;;9.27;4.38;;;23.50;70.50;;;;;;5032336;28;20064;-71
2022/10/18 11:35:30;;;;;;;7.68;4.50;;;23.50;70.50;;;;;;5050143;28;20056;-71
2022/10/18 11:38:16;;;;;;;9.23;4.50;;;23.50;70.50;;;;;;5043558;28;20029;-71
2022/10/18 11:41:23;;;;;;;9.80;4.93;;;23.50;70.40;;;;;;4985092;28;20041;-71
2022/10/18 11:43:56;;;;;;;8.38;4.28;;;23.50;71.00;;;;;;4941511;28;20050;-72
2022/10/18 11:46:30;;;;;;;8.30;4.40;;;23.50;70.70;;;;;;5012529;28;20047;-71
2022/10/18 11:49:10;;;;;;;9.93;4.55;;;23.60;70.50;;;;;;5022437;28;20035;-71
2022/10/18 11:51:44;;;;;;;10.10;4.40;;;23.60;70.80;;;;;;5007248;28;20457;-71
2022/10/18 11:54:41;;;;;;;12.27;5.07;;;23.60;71.30;;;;;;5031704;28;20040;-71
2022/10/18 11:57:15;;;;;;;10.18;4.75;;;23.60;73.40;;;;;;5052008;28;20032;-72
2022/10/18 12:00:12;;;;;;;13.18;4.90;;;23.70;70.90;;;;;;5049420;28;20040;-72
2022/10/18 12:03:14;;;;;;;7.97;5.10;;;23.80;71.30;;;;;;5031347;28;20032;-71
2022/10/18 12:05:44;;;;;;;13.60;6.75;;;23.80;72.30;;;;;;5021906;23;20049;-72
2022/10/18 12:08:25;;;;;;;7.53;4.63;;;23.90;77.50;;;;;;5028391;28;20112;-72
2022/10/18 12:10:56;;;;;;;11.55;5.97;;;23.90;72.20;;;;;;5011441;28;20041;-72
2022/10/18 12:13:35;;;;;;;11.07;5.45;;;23.90;73.70;;;;;;5026133;28;20041;-72
2022/10/18 12:16:05;;;;;;;12.25;6.43;;;24.00;73.10;;;;;;5010200;28;20061;-73
2022/10/18 12:18:31;;;;;;;;;;;24.00;74.70;;;;;;5014262;28;20041;-73
2022/10/18 12:20:59;;;;;;;11.23;5.88;;;24.00;73.40;;;;;;5011419;28;19913;-74
2022/10/18 12:23:28;;;;;;;14.35;6.40;;;24.00;73.00;;;;;;5016185;28;20025;-73
2022/10/18 12:25:59;;;;;;;13.05;6.40;;;24.00;73.20;;;;;;5009364;28;20032;-73
2022/10/18 12:28:54;;;;;;;11.05;5.55;;;24.00;74.20;;;;;;5009972;28;20026;-73
2022/10/18 12:31:37;;;;;;;9.27;5.38;;;24.00;73.80;;;;;;5027462;28;20140;-73
2022/10/18 12:34:26;;;;;;;11.07;5.75;;;24.00;73.30;;;;;;5027135;28;20099;-73
2022/10/18 12:37:07;;;;;;;9.43;5.65;;;24.00;73.90;;;;;;5009559;28;20037;-73
2022/10/18 12:39:54;;;;;;;14.98;5.22;;;24.10;73.40;;;;;;5027029;28;20026;-73
2022/10/18 12:42:32;;;;;;;9.68;5.60;;;24.00;73.40;;;;;;5009624;28;20056;-73
2022/10/18 12:45:32;;;;;;;10.35;5.07;;;24.00;73.30;;;;;;5009554;28;20052;-73
2022/10/18 12:48:28;;;;;;;10.30;4.95;;;24.00;73.30;;;;;;5023938;28;20022;-73
2022/10/18 12:51:03;;;;;;;14.45;5.20;;;24.00;73.90;;;;;;5021741;28;20033;-68
2022/10/18 12:53:30;;;;;;;13.98;5.72;;;24.00;73.90;;;;;;5027553;28;20037;-68
2022/10/18 12:56:36;;;;;;;21.95;13.52;;;24.00;73.10;;;;;;5029253;28;20103;-75
2022/10/18 12:59:14;;;;;;;26.30;17.38;;;23.90;73.40;;;;;;5032446;28;20041;-74